Main page
Satellite images 10-day forecastsClimateMarine weather Cyclones Lightning AirportsFAQ Newsletter About
Weather : Europe Africa North America South America Asia Australia-Oceania Others
Languages Contact

London, England

London City Airport

latitude: 51-30N, longitude: 000-03E, elevation: 5 m


METAR: EGLC 271720Z 23015KT CAVOK 18/08 Q1018
TAF: EGLC 271659Z 2718/2721 23010KT 9999 SCT040 PROB30 TEMPO 2719/2721 8000 -RA

Time: 18:37 (17:37 UTC)

Current weather observation

The report was made 17 minutes ago, at 17:20 UTC
Wind 15 kt from the Southwest
Temperature 18°C
Humidity 52%
Pressure 1018 hPa
Visibility 10 km or more
no clouds below 1500 m and no cumulonimbus

Change units

Forecast

The report was made 38 minutes ago, at 16:59 UTC
Forecast valid from 27 at 18 UTC to 27 at 21 UTC
Wind 10 kt from the Southwest
Visibility 10 km or more
Scattered clouds at a height of 4000 ft
Probability 30% :
Temporary
from 27 at 19 UTC to 27 at 21 UTC
Visibility: 8000 m
light rain
The information on this site is subject to a disclaimer
Weather : Europe Africa North America South America Asia Australia-Oceania Others
Satellite images 10-day forecastsClimateMarine weather Cyclones Lightning AirportsFAQ Languages Contact Newsletter About